Aviation Digital Data Service (ADDS)

Output produced by METARs form (0459 UTC 25 April 2014)
found at http://aviationweather.gov/adds/metars/
 
KCLT 242341Z 2500/2524 16007KT P6SM SCT060 SCT250 
     FM251000 15005KT P6SM BKN010 OVC060 
     FM251100 15006KT P6SM BKN005 OVC010 
     FM251300 16008KT P6SM BKN010 OVC027 
     FM251500 21011G20KT P6SM SCT027 OVC045 
     PROB30 2515/2521 4SM TSRA OVC014CB 
     FM252100 24009KT P6SM SCT070